sensor_id;sensor_type;location;lat;lon;timestamp;P1;durP1;ratioP1;P2;durP2;ratioP2
62588;SDS011;58504;48.770;9.148;2023-03-01T00:01:16;6.13;;;2.67;;
62588;SDS011;58504;48.770;9.148;2023-03-01T00:03:44;2.08;;;1.95;;
62588;SDS011;58504;48.770;9.148;2023-03-01T00:06:11;3.25;;;2.78;;
62588;SDS011;58504;48.770;9.148;2023-03-01T00:08:38;2.78;;;2.38;;
62588;SDS011;58504;48.770;9.148;2023-03-01T00:11:06;1.95;;;1.85;;
62588;SDS011;58504;48.770;9.148;2023-03-01T00:13:34;4.55;;;2.67;;
62588;SDS011;58504;48.770;9.148;2023-03-01T00:16:02;3.03;;;2.55;;
62588;SDS011;58504;48.770;9.148;2023-03-01T00:18:30;2.80;;;2.47;;
62588;SDS011;58504;48.770;9.148;2023-03-01T00:20:58;2.35;;;2.15;;
62588;SDS011;58504;48.770;9.148;2023-03-01T00:23:24;2.70;;;2.50;;
62588;SDS011;58504;48.770;9.148;2023-03-01T00:25:51;2.88;;;2.65;;
62588;SDS011;58504;48.770;9.148;2023-03-01T00:28:18;3.72;;;2.42;;
62588;SDS011;58504;48.770;9.148;2023-03-01T00:30:46;2.83;;;2.58;;
62588;SDS011;58504;48.770;9.148;2023-03-01T00:33:13;2.25;;;2.13;;
62588;SDS011;58504;48.770;9.148;2023-03-01T00:35:41;2.47;;;2.28;;
62588;SDS011;58504;48.770;9.148;2023-03-01T00:38:08;2.95;;;2.70;;
62588;SDS011;58504;48.770;9.148;2023-03-01T00:40:35;2.88;;;2.50;;
62588;SDS011;58504;48.770;9.148;2023-03-01T00:43:03;3.22;;;2.53;;
62588;SDS011;58504;48.770;9.148;2023-03-01T00:45:30;2.70;;;2.50;;
62588;SDS011;58504;48.770;9.148;2023-03-01T00:47:57;2.30;;;2.10;;
62588;SDS011;58504;48.770;9.148;2023-03-01T00:50:23;2.60;;;2.40;;
62588;SDS011;58504;48.770;9.148;2023-03-01T00:52:53;3.10;;;2.88;;
62588;SDS011;58504;48.770;9.148;2023-03-01T00:55:20;2.63;;;2.42;;
62588;SDS011;58504;48.770;9.148;2023-03-01T00:57:48;2.63;;;2.15;;
62588;SDS011;58504;48.770;9.148;2023-03-01T01:00:15;2.97;;;2.50;;
62588;SDS011;58504;48.770;9.148;2023-03-01T01:02:42;2.25;;;2.05;;
62588;SDS011;58504;48.770;9.148;2023-03-01T01:05:09;2.70;;;2.33;;
62588;SDS011;58504;48.770;9.148;2023-03-01T01:07:36;2.95;;;2.67;;
62588;SDS011;58504;48.770;9.148;2023-03-01T01:10:05;2.97;;;2.75;;
62588;SDS011;58504;48.770;9.148;2023-03-01T01:12:33;2.67;;;2.47;;
62588;SDS011;58504;48.770;9.148;2023-03-01T01:15:00;2.80;;;2.47;;
62588;SDS011;58504;48.770;9.148;2023-03-01T01:17:26;2.78;;;2.58;;
62588;SDS011;58504;48.770;9.148;2023-03-01T01:19:53;2.92;;;2.70;;
62588;SDS011;58504;48.770;9.148;2023-03-01T01:22:20;2.80;;;2.42;;
62588;SDS011;58504;48.770;9.148;2023-03-01T01:24:47;2.63;;;2.42;;
62588;SDS011;58504;48.770;9.148;2023-03-01T01:27:15;3.55;;;2.65;;
62588;SDS011;58504;48.770;9.148;2023-03-01T01:29:41;2.50;;;2.30;;
62588;SDS011;58504;48.770;9.148;2023-03-01T01:32:08;2.92;;;2.72;;
62588;SDS011;58504;48.770;9.148;2023-03-01T01:34:35;2.53;;;2.33;;
62588;SDS011;58504;48.770;9.148;2023-03-01T01:37:02;2.80;;;2.50;;
62588;SDS011;58504;48.770;9.148;2023-03-01T01:39:32;2.65;;;2.45;;
62588;SDS011;58504;48.770;9.148;2023-03-01T01:41:59;2.55;;;2.35;;
62588;SDS011;58504;48.770;9.148;2023-03-01T01:44:28;2.28;;;2.17;;
62588;SDS011;58504;48.770;9.148;2023-03-01T01:46:55;3.15;;;2.60;;
62588;SDS011;58504;48.770;9.148;2023-03-01T01:49:27;2.50;;;2.30;;
62588;SDS011;58504;48.770;9.148;2023-03-01T01:51:59;2.65;;;2.45;;
62588;SDS011;58504;48.770;9.148;2023-03-01T01:57:01;2.90;;;2.10;;
62588;SDS011;58504;48.770;9.148;2023-03-01T01:59:32;2.90;;;2.70;;
62588;SDS011;58504;48.770;9.148;2023-03-01T02:02:00;2.50;;;2.30;;
62588;SDS011;58504;48.770;9.148;2023-03-01T02:04:29;2.40;;;2.20;;
62588;SDS011;58504;48.770;9.148;2023-03-01T02:06:57;2.30;;;2.10;;
62588;SDS011;58504;48.770;9.148;2023-03-01T02:09:27;2.35;;;2.25;;
62588;SDS011;58504;48.770;9.148;2023-03-01T02:11:56;2.92;;;2.45;;
62588;SDS011;58504;48.770;9.148;2023-03-01T02:14:24;2.92;;;2.63;;
62588;SDS011;58504;48.770;9.148;2023-03-01T02:16:52;2.55;;;2.35;;
62588;SDS011;58504;48.770;9.148;2023-03-01T02:19:22;4.00;;;2.22;;
62588;SDS011;58504;48.770;9.148;2023-03-01T02:21:59;2.75;;;2.55;;
62588;SDS011;58504;48.770;9.148;2023-03-01T02:24:38;2.60;;;2.40;;
62588;SDS011;58504;48.770;9.148;2023-03-01T02:27:12;2.78;;;2.58;;
62588;SDS011;58504;48.770;9.148;2023-03-01T02:29:41;2.70;;;2.50;;
62588;SDS011;58504;48.770;9.148;2023-03-01T02:32:09;2.90;;;2.60;;
62588;SDS011;58504;48.770;9.148;2023-03-01T02:34:38;2.70;;;2.40;;
62588;SDS011;58504;48.770;9.148;2023-03-01T02:37:06;2.30;;;2.10;;
62588;SDS011;58504;48.770;9.148;2023-03-01T02:42:07;2.40;;;2.20;;
62588;SDS011;58504;48.770;9.148;2023-03-01T02:44:37;2.55;;;2.35;;
62588;SDS011;58504;48.770;9.148;2023-03-01T02:47:05;2.30;;;2.10;;
62588;SDS011;58504;48.770;9.148;2023-03-01T02:49:32;2.67;;;2.47;;
62588;SDS011;58504;48.770;9.148;2023-03-01T02:55:04;2.78;;;2.58;;
62588;SDS011;58504;48.770;9.148;2023-03-01T02:57:34;2.28;;;2.08;;
62588;SDS011;58504;48.770;9.148;2023-03-01T03:00:04;2.42;;;2.33;;
62588;SDS011;58504;48.770;9.148;2023-03-01T03:02:35;2.40;;;2.20;;
62588;SDS011;58504;48.770;9.148;2023-03-01T03:05:06;2.20;;;2.10;;
62588;SDS011;58504;48.770;9.148;2023-03-01T03:07:35;2.50;;;2.28;;
62588;SDS011;58504;48.770;9.148;2023-03-01T03:10:03;2.72;;;2.47;;
62588;SDS011;58504;48.770;9.148;2023-03-01T03:12:31;2.58;;;2.38;;
62588;SDS011;58504;48.770;9.148;2023-03-01T03:14:58;2.60;;;2.40;;
62588;SDS011;58504;48.770;9.148;2023-03-01T03:17:24;2.78;;;2.58;;
62588;SDS011;58504;48.770;9.148;2023-03-01T03:19:53;2.15;;;2.05;;
62588;SDS011;58504;48.770;9.148;2023-03-01T03:22:19;2.92;;;2.42;;
62588;SDS011;58504;48.770;9.148;2023-03-01T03:24:46;2.83;;;2.58;;
62588;SDS011;58504;48.770;9.148;2023-03-01T03:27:13;2.60;;;2.40;;
62588;SDS011;58504;48.770;9.148;2023-03-01T03:29:39;2.60;;;2.40;;
62588;SDS011;58504;48.770;9.148;2023-03-01T03:32:06;2.63;;;2.42;;
62588;SDS011;58504;48.770;9.148;2023-03-01T03:34:33;2.95;;;2.75;;
62588;SDS011;58504;48.770;9.148;2023-03-01T03:37:01;2.63;;;2.42;;
62588;SDS011;58504;48.770;9.148;2023-03-01T03:39:28;3.05;;;2.60;;
62588;SDS011;58504;48.770;9.148;2023-03-01T03:41:59;2.40;;;2.20;;
62588;SDS011;58504;48.770;9.148;2023-03-01T03:44:26;2.53;;;2.33;;
62588;SDS011;58504;48.770;9.148;2023-03-01T03:46:53;2.67;;;2.47;;
62588;SDS011;58504;48.770;9.148;2023-03-01T03:49:20;2.80;;;2.55;;
62588;SDS011;58504;48.770;9.148;2023-03-01T03:51:47;2.55;;;2.35;;
62588;SDS011;58504;48.770;9.148;2023-03-01T03:54:15;2.60;;;2.40;;
62588;SDS011;58504;48.770;9.148;2023-03-01T03:56:42;2.58;;;2.38;;
62588;SDS011;58504;48.770;9.148;2023-03-01T03:59:09;2.15;;;2.03;;
62588;SDS011;58504;48.770;9.148;2023-03-01T04:01:36;2.65;;;2.45;;
62588;SDS011;58504;48.770;9.148;2023-03-01T04:04:03;2.97;;;2.78;;
62588;SDS011;58504;48.770;9.148;2023-03-01T04:06:30;2.53;;;2.33;;
62588;SDS011;58504;48.770;9.148;2023-03-01T04:08:57;3.00;;;2.70;;
62588;SDS011;58504;48.770;9.148;2023-03-01T04:11:27;2.40;;;2.20;;
62588;SDS011;58504;48.770;9.148;2023-03-01T04:13:54;2.40;;;2.30;;
62588;SDS011;58504;48.770;9.148;2023-03-01T04:16:22;2.70;;;2.50;;
62588;SDS011;58504;48.770;9.148;2023-03-01T04:18:49;2.88;;;2.53;;
62588;SDS011;58504;48.770;9.148;2023-03-01T04:21:17;3.38;;;3.08;;
62588;SDS011;58504;48.770;9.148;2023-03-01T04:23:45;2.40;;;2.30;;
62588;SDS011;58504;48.770;9.148;2023-03-01T04:26:12;2.55;;;2.35;;
62588;SDS011;58504;48.770;9.148;2023-03-01T04:28:40;2.63;;;2.42;;
62588;SDS011;58504;48.770;9.148;2023-03-01T04:31:11;2.60;;;2.40;;
62588;SDS011;58504;48.770;9.148;2023-03-01T04:33:39;2.63;;;2.42;;
62588;SDS011;58504;48.770;9.148;2023-03-01T04:36:07;2.53;;;2.33;;
62588;SDS011;58504;48.770;9.148;2023-03-01T04:38:35;2.83;;;2.58;;
62588;SDS011;58504;48.770;9.148;2023-03-01T04:41:03;2.65;;;2.45;;
62588;SDS011;58504;48.770;9.148;2023-03-01T04:43:30;3.17;;;2.88;;
62588;SDS011;58504;48.770;9.148;2023-03-01T04:46:01;2.78;;;2.58;;
62588;SDS011;58504;48.770;9.148;2023-03-01T04:48:29;2.80;;;2.17;;
62588;SDS011;58504;48.770;9.148;2023-03-01T04:50:56;2.33;;;2.13;;
62588;SDS011;58504;48.770;9.148;2023-03-01T04:53:24;2.63;;;2.42;;
62588;SDS011;58504;48.770;9.148;2023-03-01T04:55:51;2.53;;;2.33;;
62588;SDS011;58504;48.770;9.148;2023-03-01T04:58:17;2.80;;;2.50;;
62588;SDS011;58504;48.770;9.148;2023-03-01T05:00:44;2.40;;;2.30;;
62588;SDS011;58504;48.770;9.148;2023-03-01T05:03:12;2.75;;;2.55;;
62588;SDS011;58504;48.770;9.148;2023-03-01T05:05:43;2.53;;;2.33;;
62588;SDS011;58504;48.770;9.148;2023-03-01T05:08:11;2.55;;;2.35;;
62588;SDS011;58504;48.770;9.148;2023-03-01T05:10:42;2.63;;;2.42;;
62588;SDS011;58504;48.770;9.148;2023-03-01T05:13:11;2.40;;;2.20;;
62588;SDS011;58504;48.770;9.148;2023-03-01T05:15:40;2.58;;;2.38;;
62588;SDS011;58504;48.770;9.148;2023-03-01T05:18:06;2.80;;;2.42;;
62588;SDS011;58504;48.770;9.148;2023-03-01T05:20:37;2.47;;;2.28;;
62588;SDS011;58504;48.770;9.148;2023-03-01T05:23:04;2.40;;;2.20;;
62588;SDS011;58504;48.770;9.148;2023-03-01T05:25:31;2.22;;;2.13;;
62588;SDS011;58504;48.770;9.148;2023-03-01T05:27:59;2.50;;;2.30;;
62588;SDS011;58504;48.770;9.148;2023-03-01T05:30:29;2.53;;;2.33;;
62588;SDS011;58504;48.770;9.148;2023-03-01T05:32:56;2.63;;;2.42;;
62588;SDS011;58504;48.770;9.148;2023-03-01T05:35:23;2.97;;;2.78;;
62588;SDS011;58504;48.770;9.148;2023-03-01T05:37:51;2.22;;;2.03;;
62588;SDS011;58504;48.770;9.148;2023-03-01T05:40:19;2.20;;;2.10;;
62588;SDS011;58504;48.770;9.148;2023-03-01T05:42:48;2.78;;;2.20;;
62588;SDS011;58504;48.770;9.148;2023-03-01T05:45:16;2.85;;;2.63;;
62588;SDS011;58504;48.770;9.148;2023-03-01T05:47:44;2.50;;;2.30;;
62588;SDS011;58504;48.770;9.148;2023-03-01T05:50:13;2.58;;;2.38;;
62588;SDS011;58504;48.770;9.148;2023-03-01T05:52:44;2.35;;;2.20;;
62588;SDS011;58504;48.770;9.148;2023-03-01T05:55:13;3.33;;;2.55;;
62588;SDS011;58504;48.770;9.148;2023-03-01T05:57:40;2.38;;;2.17;;
62588;SDS011;58504;48.770;9.148;2023-03-01T06:00:07;3.13;;;2.83;;
62588;SDS011;58504;48.770;9.148;2023-03-01T06:02:35;2.67;;;2.47;;
62588;SDS011;58504;48.770;9.148;2023-03-01T06:05:02;2.42;;;2.22;;
62588;SDS011;58504;48.770;9.148;2023-03-01T06:07:30;2.70;;;2.50;;
62588;SDS011;58504;48.770;9.148;2023-03-01T06:09:57;2.42;;;2.33;;
62588;SDS011;58504;48.770;9.148;2023-03-01T06:12:25;2.38;;;2.17;;
62588;SDS011;58504;48.770;9.148;2023-03-01T06:14:52;2.90;;;2.65;;
62588;SDS011;58504;48.770;9.148;2023-03-01T06:17:18;2.63;;;2.42;;
62588;SDS011;58504;48.770;9.148;2023-03-01T06:19:46;2.28;;;2.13;;
62588;SDS011;58504;48.770;9.148;2023-03-01T06:22:13;2.47;;;2.28;;
62588;SDS011;58504;48.770;9.148;2023-03-01T06:24:39;3.33;;;2.90;;
62588;SDS011;58504;48.770;9.148;2023-03-01T06:27:06;3.63;;;2.17;;
62588;SDS011;58504;48.770;9.148;2023-03-01T06:29:34;3.00;;;2.67;;
62588;SDS011;58504;48.770;9.148;2023-03-01T06:32:01;3.85;;;2.30;;
62588;SDS011;58504;48.770;9.148;2023-03-01T06:34:28;2.63;;;2.42;;
62588;SDS011;58504;48.770;9.148;2023-03-01T06:36:55;2.13;;;2.03;;
62588;SDS011;58504;48.770;9.148;2023-03-01T06:39:22;2.55;;;2.10;;
62588;SDS011;58504;48.770;9.148;2023-03-01T06:41:49;2.10;;;1.90;;
62588;SDS011;58504;48.770;9.148;2023-03-01T06:44:15;2.58;;;2.38;;
62588;SDS011;58504;48.770;9.148;2023-03-01T06:46:43;4.10;;;2.35;;
62588;SDS011;58504;48.770;9.148;2023-03-01T06:49:11;2.85;;;2.22;;
62588;SDS011;58504;48.770;9.148;2023-03-01T06:51:37;2.67;;;2.42;;
62588;SDS011;58504;48.770;9.148;2023-03-01T06:54:04;2.67;;;2.47;;
62588;SDS011;58504;48.770;9.148;2023-03-01T06:56:31;2.40;;;2.20;;
62588;SDS011;58504;48.770;9.148;2023-03-01T06:58:58;3.03;;;2.53;;
62588;SDS011;58504;48.770;9.148;2023-03-01T07:01:25;2.53;;;2.33;;
62588;SDS011;58504;48.770;9.148;2023-03-01T07:03:53;3.50;;;2.30;;
62588;SDS011;58504;48.770;9.148;2023-03-01T07:06:20;2.70;;;1.95;;
62588;SDS011;58504;48.770;9.148;2023-03-01T07:08:47;3.97;;;2.55;;
62588;SDS011;58504;48.770;9.148;2023-03-01T07:11:14;9.90;;;4.15;;
62588;SDS011;58504;48.770;9.148;2023-03-01T07:13:41;11.60;;;2.55;;
62588;SDS011;58504;48.770;9.148;2023-03-01T07:16:08;3.65;;;2.80;;
62588;SDS011;58504;48.770;9.148;2023-03-01T07:18:35;5.60;;;2.70;;
62588;SDS011;58504;48.770;9.148;2023-03-01T07:21:06;6.93;;;2.45;;
62588;SDS011;58504;48.770;9.148;2023-03-01T07:23:34;3.40;;;2.50;;
62588;SDS011;58504;48.770;9.148;2023-03-01T07:26:01;4.97;;;2.30;;
62588;SDS011;58504;48.770;9.148;2023-03-01T07:28:28;4.15;;;2.85;;
62588;SDS011;58504;48.770;9.148;2023-03-01T07:30:55;3.90;;;2.22;;
62588;SDS011;58504;48.770;9.148;2023-03-01T07:33:26;6.07;;;2.25;;
62588;SDS011;58504;48.770;9.148;2023-03-01T07:35:55;6.18;;;2.20;;
62588;SDS011;58504;48.770;9.148;2023-03-01T07:38:25;3.33;;;2.33;;
62588;SDS011;58504;48.770;9.148;2023-03-01T07:40:52;3.45;;;1.85;;
62588;SDS011;58504;48.770;9.148;2023-03-01T07:43:19;3.08;;;1.95;;
62588;SDS011;58504;48.770;9.148;2023-03-01T07:45:46;2.72;;;2.53;;
62588;SDS011;58504;48.770;9.148;2023-03-01T07:48:13;3.58;;;2.08;;
62588;SDS011;58504;48.770;9.148;2023-03-01T07:50:39;4.13;;;2.63;;
62588;SDS011;58504;48.770;9.148;2023-03-01T07:53:06;3.30;;;2.50;;
62588;SDS011;58504;48.770;9.148;2023-03-01T07:55:34;5.75;;;2.10;;
62588;SDS011;58504;48.770;9.148;2023-03-01T07:58:01;2.88;;;2.40;;
62588;SDS011;58504;48.770;9.148;2023-03-01T08:00:28;2.60;;;2.10;;
62588;SDS011;58504;48.770;9.148;2023-03-01T08:02:54;2.20;;;2.10;;
62588;SDS011;58504;48.770;9.148;2023-03-01T08:05:25;3.13;;;2.25;;
62588;SDS011;58504;48.770;9.148;2023-03-01T08:07:51;3.78;;;1.92;;
62588;SDS011;58504;48.770;9.148;2023-03-01T08:10:19;2.28;;;2.00;;
62588;SDS011;58504;48.770;9.148;2023-03-01T08:12:47;4.50;;;2.53;;
62588;SDS011;58504;48.770;9.148;2023-03-01T08:15:14;2.20;;;2.10;;
62588;SDS011;58504;48.770;9.148;2023-03-01T08:17:40;2.28;;;2.08;;
62588;SDS011;58504;48.770;9.148;2023-03-01T08:20:08;2.30;;;2.10;;
62588;SDS011;58504;48.770;9.148;2023-03-01T08:22:37;2.83;;;2.10;;
62588;SDS011;58504;48.770;9.148;2023-03-01T08:25:04;2.25;;;2.05;;
62588;SDS011;58504;48.770;9.148;2023-03-01T08:27:31;4.03;;;2.08;;
62588;SDS011;58504;48.770;9.148;2023-03-01T08:29:59;2.40;;;2.10;;
62588;SDS011;58504;48.770;9.148;2023-03-01T08:32:26;2.53;;;2.33;;
62588;SDS011;58504;48.770;9.148;2023-03-01T08:34:53;3.22;;;3.03;;
62588;SDS011;58504;48.770;9.148;2023-03-01T08:37:19;7.72;;;6.55;;
62588;SDS011;58504;48.770;9.148;2023-03-01T08:39:46;6.57;;;3.75;;
62588;SDS011;58504;48.770;9.148;2023-03-01T08:42:13;5.80;;;3.60;;
62588;SDS011;58504;48.770;9.148;2023-03-01T08:44:40;3.97;;;3.30;;
62588;SDS011;58504;48.770;9.148;2023-03-01T08:47:08;5.72;;;3.47;;
62588;SDS011;58504;48.770;9.148;2023-03-01T08:49:35;4.00;;;3.03;;
62588;SDS011;58504;48.770;9.148;2023-03-01T08:52:02;3.15;;;2.92;;
62588;SDS011;58504;48.770;9.148;2023-03-01T08:54:28;3.75;;;3.00;;
62588;SDS011;58504;48.770;9.148;2023-03-01T08:56:55;3.03;;;2.83;;
62588;SDS011;58504;48.770;9.148;2023-03-01T08:59:24;3.95;;;2.92;;
62588;SDS011;58504;48.770;9.148;2023-03-01T09:01:51;3.35;;;3.05;;
62588;SDS011;58504;48.770;9.148;2023-03-01T09:04:20;3.47;;;2.50;;
62588;SDS011;58504;48.770;9.148;2023-03-01T09:06:46;2.78;;;2.53;;
62588;SDS011;58504;48.770;9.148;2023-03-01T09:09:14;3.33;;;3.03;;
62588;SDS011;58504;48.770;9.148;2023-03-01T09:11:42;3.42;;;2.88;;
62588;SDS011;58504;48.770;9.148;2023-03-01T09:14:11;4.88;;;2.70;;
62588;SDS011;58504;48.770;9.148;2023-03-01T09:16:38;3.63;;;3.15;;
62588;SDS011;58504;48.770;9.148;2023-03-01T09:19:05;3.33;;;3.03;;
62588;SDS011;58504;48.770;9.148;2023-03-01T09:21:33;3.63;;;2.75;;
62588;SDS011;58504;48.770;9.148;2023-03-01T09:24:00;3.00;;;2.78;;
62588;SDS011;58504;48.770;9.148;2023-03-01T09:26:26;2.90;;;2.70;;
62588;SDS011;58504;48.770;9.148;2023-03-01T09:28:53;2.72;;;2.50;;
62588;SDS011;58504;48.770;9.148;2023-03-01T09:31:22;4.97;;;2.55;;
62588;SDS011;58504;48.770;9.148;2023-03-01T09:33:50;3.30;;;2.97;;
62588;SDS011;58504;48.770;9.148;2023-03-01T09:36:19;3.00;;;2.70;;
62588;SDS011;58504;48.770;9.148;2023-03-01T09:38:48;2.63;;;2.42;;
62588;SDS011;58504;48.770;9.148;2023-03-01T09:44:10;3.00;;;2.63;;
62588;SDS011;58504;48.770;9.148;2023-03-01T09:46:44;3.03;;;2.63;;
62588;SDS011;58504;48.770;9.148;2023-03-01T09:49:14;2.20;;;2.00;;
62588;SDS011;58504;48.770;9.148;2023-03-01T09:51:43;2.47;;;2.30;;
62588;SDS011;58504;48.770;9.148;2023-03-01T09:54:19;2.67;;;2.47;;
62588;SDS011;58504;48.770;9.148;2023-03-01T09:56:47;2.50;;;2.25;;
62588;SDS011;58504;48.770;9.148;2023-03-01T09:59:25;2.80;;;2.60;;
62588;SDS011;58504;48.770;9.148;2023-03-01T10:01:55;3.72;;;2.33;;
62588;SDS011;58504;48.770;9.148;2023-03-01T10:04:32;3.70;;;2.65;;
62588;SDS011;58504;48.770;9.148;2023-03-01T10:07:17;5.50;;;2.93;;
62588;SDS011;58504;48.770;9.148;2023-03-01T10:12:22;3.53;;;2.50;;
62588;SDS011;58504;48.770;9.148;2023-03-01T10:14:54;3.97;;;2.58;;
62588;SDS011;58504;48.770;9.148;2023-03-01T10:17:26;2.47;;;2.17;;
62588;SDS011;58504;48.770;9.148;2023-03-01T10:22:36;3.33;;;2.53;;
62588;SDS011;58504;48.770;9.148;2023-03-01T10:25:04;3.00;;;2.72;;
62588;SDS011;58504;48.770;9.148;2023-03-01T10:27:34;2.90;;;2.60;;
62588;SDS011;58504;48.770;9.148;2023-03-01T10:30:10;8.27;;;3.13;;
62588;SDS011;58504;48.770;9.148;2023-03-01T10:32:44;4.25;;;2.42;;
62588;SDS011;58504;48.770;9.148;2023-03-01T10:35:15;2.33;;;2.13;;
62588;SDS011;58504;48.770;9.148;2023-03-01T10:37:56;2.92;;;2.72;;
62588;SDS011;58504;48.770;9.148;2023-03-01T10:40:25;2.88;;;2.67;;
62588;SDS011;58504;48.770;9.148;2023-03-01T10:42:52;4.25;;;2.80;;
62588;SDS011;58504;48.770;9.148;2023-03-01T10:45:27;3.00;;;2.70;;
62588;SDS011;58504;48.770;9.148;2023-03-01T10:50:49;2.45;;;2.33;;
62588;SDS011;58504;48.770;9.148;2023-03-01T10:53:21;15.13;;;10.95;;
62588;SDS011;58504;48.770;9.148;2023-03-01T10:55:59;17.83;;;11.68;;
62588;SDS011;58504;48.770;9.148;2023-03-01T10:58:29;10.07;;;8.60;;
62588;SDS011;58504;48.770;9.148;2023-03-01T11:00:58;11.93;;;7.40;;
62588;SDS011;58504;48.770;9.148;2023-03-01T11:03:27;7.97;;;7.18;;
62588;SDS011;58504;48.770;9.148;2023-03-01T11:05:57;10.48;;;5.88;;
62588;SDS011;58504;48.770;9.148;2023-03-01T11:08:29;5.35;;;4.85;;
62588;SDS011;58504;48.770;9.148;2023-03-01T11:11:16;6.72;;;5.18;;
62588;SDS011;58504;48.770;9.148;2023-03-01T11:16:22;4.97;;;4.25;;
62588;SDS011;58504;48.770;9.148;2023-03-01T11:18:59;5.82;;;4.68;;
62588;SDS011;58504;48.770;9.148;2023-03-01T11:21:28;3.90;;;3.60;;
62588;SDS011;58504;48.770;9.148;2023-03-01T11:23:57;5.15;;;3.85;;
62588;SDS011;58504;48.770;9.148;2023-03-01T11:26:28;5.50;;;3.97;;
62588;SDS011;58504;48.770;9.148;2023-03-01T11:28:58;7.05;;;3.75;;
62588;SDS011;58504;48.770;9.148;2023-03-01T11:31:29;5.38;;;4.13;;
62588;SDS011;58504;48.770;9.148;2023-03-01T11:33:59;4.75;;;3.88;;
62588;SDS011;58504;48.770;9.148;2023-03-01T11:36:35;6.75;;;4.50;;
62588;SDS011;58504;48.770;9.148;2023-03-01T11:39:12;11.88;;;5.07;;
62588;SDS011;58504;48.770;9.148;2023-03-01T11:41:50;9.55;;;5.05;;
62588;SDS011;58504;48.770;9.148;2023-03-01T11:44:25;10.70;;;4.72;;
62588;SDS011;58504;48.770;9.148;2023-03-01T11:47:06;11.97;;;4.43;;
62588;SDS011;58504;48.770;9.148;2023-03-01T11:49:54;7.63;;;4.13;;
62588;SDS011;58504;48.770;9.148;2023-03-01T11:52:36;9.68;;;4.78;;
62588;SDS011;58504;48.770;9.148;2023-03-01T11:55:19;9.00;;;4.47;;
62588;SDS011;58504;48.770;9.148;2023-03-01T11:57:59;28.40;;;4.70;;
62588;SDS011;58504;48.770;9.148;2023-03-01T12:00:57;12.60;;;4.63;;
62588;SDS011;58504;48.770;9.148;2023-03-01T12:03:42;13.05;;;3.90;;
62588;SDS011;58504;48.770;9.148;2023-03-01T12:06:24;9.00;;;3.78;;
62588;SDS011;58504;48.770;9.148;2023-03-01T12:09:17;6.57;;;4.03;;
62588;SDS011;58504;48.770;9.148;2023-03-01T12:12:18;5.57;;;3.30;;
62588;SDS011;58504;48.770;9.148;2023-03-01T12:14:58;8.15;;;4.35;;
62588;SDS011;58504;48.770;9.148;2023-03-01T12:17:43;7.70;;;3.90;;
62588;SDS011;58504;48.770;9.148;2023-03-01T12:20:28;8.88;;;3.60;;
62588;SDS011;58504;48.770;9.148;2023-03-01T12:23:16;10.05;;;4.32;;
62588;SDS011;58504;48.770;9.148;2023-03-01T12:25:54;6.93;;;3.63;;
62588;SDS011;58504;48.770;9.148;2023-03-01T12:28:42;4.68;;;3.83;;
62588;SDS011;58504;48.770;9.148;2023-03-01T12:31:41;6.38;;;3.60;;
62588;SDS011;58504;48.770;9.148;2023-03-01T12:34:21;5.05;;;3.13;;
62588;SDS011;58504;48.770;9.148;2023-03-01T12:37:03;7.93;;;3.58;;
62588;SDS011;58504;48.770;9.148;2023-03-01T12:39:50;4.47;;;3.50;;
62588;SDS011;58504;48.770;9.148;2023-03-01T12:42:30;6.57;;;3.17;;
62588;SDS011;58504;48.770;9.148;2023-03-01T12:48:06;5.88;;;4.22;;
62588;SDS011;58504;48.770;9.148;2023-03-01T12:50:44;4.15;;;3.40;;
62588;SDS011;58504;48.770;9.148;2023-03-01T12:53:19;3.92;;;2.83;;
62588;SDS011;58504;48.770;9.148;2023-03-01T12:55:51;8.77;;;3.20;;
62588;SDS011;58504;48.770;9.148;2023-03-01T12:58:24;4.78;;;3.55;;
62588;SDS011;58504;48.770;9.148;2023-03-01T13:01:00;4.97;;;3.53;;
62588;SDS011;58504;48.770;9.148;2023-03-01T13:03:38;3.75;;;2.85;;
62588;SDS011;58504;48.770;9.148;2023-03-01T13:06:19;11.43;;;3.83;;
62588;SDS011;58504;48.770;9.148;2023-03-01T13:08:53;5.03;;;3.10;;
62588;SDS011;58504;48.770;9.148;2023-03-01T13:11:25;8.23;;;2.92;;
62588;SDS011;58504;48.770;9.148;2023-03-01T13:13:52;8.40;;;3.45;;
62588;SDS011;58504;48.770;9.148;2023-03-01T13:16:59;6.38;;;3.28;;
62588;SDS011;58504;48.770;9.148;2023-03-01T13:19:26;5.75;;;2.60;;
62588;SDS011;58504;48.770;9.148;2023-03-01T13:21:55;5.57;;;3.60;;
62588;SDS011;58504;48.770;9.148;2023-03-01T13:24:23;5.10;;;3.35;;
62588;SDS011;58504;48.770;9.148;2023-03-01T13:27:11;2.92;;;2.72;;
62588;SDS011;58504;48.770;9.148;2023-03-01T13:29:54;3.88;;;3.40;;
62588;SDS011;58504;48.770;9.148;2023-03-01T13:32:26;4.03;;;3.47;;
62588;SDS011;58504;48.770;9.148;2023-03-01T13:34:58;5.70;;;3.50;;
62588;SDS011;58504;48.770;9.148;2023-03-01T13:37:26;4.07;;;2.88;;
62588;SDS011;58504;48.770;9.148;2023-03-01T13:39:56;5.32;;;2.97;;
62588;SDS011;58504;48.770;9.148;2023-03-01T13:42:30;3.05;;;2.72;;
62588;SDS011;58504;48.770;9.148;2023-03-01T13:45:04;2.67;;;2.47;;
62588;SDS011;58504;48.770;9.148;2023-03-01T13:50:15;3.28;;;2.97;;
62588;SDS011;58504;48.770;9.148;2023-03-01T13:52:45;8.52;;;3.30;;
62588;SDS011;58504;48.770;9.148;2023-03-01T13:55:18;3.83;;;2.90;;
62588;SDS011;58504;48.770;9.148;2023-03-01T13:57:49;2.95;;;2.20;;
62588;SDS011;58504;48.770;9.148;2023-03-01T14:00:33;6.60;;;2.83;;
62588;SDS011;58504;48.770;9.148;2023-03-01T14:03:08;3.08;;;2.78;;
62588;SDS011;58504;48.770;9.148;2023-03-01T14:05:38;2.50;;;2.25;;
62588;SDS011;58504;48.770;9.148;2023-03-01T14:08:17;3.17;;;2.05;;
62588;SDS011;58504;48.770;9.148;2023-03-01T14:10:49;2.65;;;2.45;;
62588;SDS011;58504;48.770;9.148;2023-03-01T14:13:48;3.92;;;2.55;;
62588;SDS011;58504;48.770;9.148;2023-03-01T14:16:27;6.55;;;3.47;;
62588;SDS011;58504;48.770;9.148;2023-03-01T14:19:05;4.93;;;2.60;;
62588;SDS011;58504;48.770;9.148;2023-03-01T14:21:44;3.25;;;2.92;;
62588;SDS011;58504;48.770;9.148;2023-03-01T14:24:16;2.60;;;2.33;;
62588;SDS011;58504;48.770;9.148;2023-03-01T14:26:45;4.13;;;2.67;;
62588;SDS011;58504;48.770;9.148;2023-03-01T14:29:26;3.38;;;2.25;;
62588;SDS011;58504;48.770;9.148;2023-03-01T14:31:54;2.80;;;2.43;;
62588;SDS011;58504;48.770;9.148;2023-03-01T14:34:21;3.78;;;2.60;;
62588;SDS011;58504;48.770;9.148;2023-03-01T14:36:51;3.22;;;2.47;;
62588;SDS011;58504;48.770;9.148;2023-03-01T14:39:19;2.40;;;2.20;;
62588;SDS011;58504;48.770;9.148;2023-03-01T14:41:50;2.70;;;2.50;;
62588;SDS011;58504;48.770;9.148;2023-03-01T14:44:19;2.70;;;2.50;;
62588;SDS011;58504;48.770;9.148;2023-03-01T14:46:51;2.88;;;2.67;;
62588;SDS011;58504;48.770;9.148;2023-03-01T14:49:20;3.72;;;3.08;;
62588;SDS011;58504;48.770;9.148;2023-03-01T14:51:51;2.40;;;2.20;;
62588;SDS011;58504;48.770;9.148;2023-03-01T14:54:21;2.92;;;2.38;;
62588;SDS011;58504;48.770;9.148;2023-03-01T14:56:51;7.38;;;2.80;;
62588;SDS011;58504;48.770;9.148;2023-03-01T14:59:19;3.72;;;2.35;;
62588;SDS011;58504;48.770;9.148;2023-03-01T15:01:48;2.88;;;2.30;;
62588;SDS011;58504;48.770;9.148;2023-03-01T15:04:27;3.33;;;2.38;;
62588;SDS011;58504;48.770;9.148;2023-03-01T15:16:45;3.03;;;2.38;;
62588;SDS011;58504;48.770;9.148;2023-03-01T15:19:15;3.42;;;2.28;;
62588;SDS011;58504;48.770;9.148;2023-03-01T15:21:58;3.05;;;2.38;;
62588;SDS011;58504;48.770;9.148;2023-03-01T15:24:46;4.47;;;2.38;;
62588;SDS011;58504;48.770;9.148;2023-03-01T15:27:29;2.47;;;2.28;;
62588;SDS011;58504;48.770;9.148;2023-03-01T15:29:57;2.70;;;2.50;;
62588;SDS011;58504;48.770;9.148;2023-03-01T15:32:28;2.38;;;2.20;;
62588;SDS011;58504;48.770;9.148;2023-03-01T15:34:56;5.03;;;2.83;;
62588;SDS011;58504;48.770;9.148;2023-03-01T15:37:38;4.05;;;2.67;;
62588;SDS011;58504;48.770;9.148;2023-03-01T15:40:17;2.10;;;2.00;;
62588;SDS011;58504;48.770;9.148;2023-03-01T15:42:45;3.95;;;2.53;;
62588;SDS011;58504;48.770;9.148;2023-03-01T15:45:20;2.20;;;2.00;;